createdAt,value
2018-02-18T00:02:04.809Z,87.60
2018-02-18T00:04:32.237Z,87.30
2018-02-18T00:07:00.432Z,87.30
2018-02-18T00:09:27.863Z,87.30
2018-02-18T00:11:56.078Z,87.60
2018-02-18T00:14:26.434Z,87.60
2018-02-18T00:16:53.912Z,87.60
2018-02-18T00:19:21.344Z,88.10
2018-02-18T00:21:48.761Z,88.30
2018-02-18T00:24:16.192Z,88.00
2018-02-18T00:26:44.405Z,87.90
2018-02-18T00:29:11.843Z,87.70
2018-02-18T00:31:40.761Z,87.50
2018-02-18T00:34:08.192Z,87.50
2018-02-18T00:36:36.401Z,88.40
2018-02-18T00:39:03.819Z,87.60
2018-02-18T00:41:32.023Z,88.80
2018-02-18T00:43:59.440Z,87.90
2018-02-18T00:46:27.655Z,87.70
2018-02-18T00:48:55.073Z,87.70
2018-02-18T00:51:23.282Z,87.90
2018-02-18T00:53:50.708Z,87.60
2018-02-18T00:56:18.916Z,87.60
2018-02-18T00:58:46.341Z,87.50
2018-02-18T01:01:14.536Z,87.50
2018-02-18T01:03:41.966Z,87.40
2018-02-18T01:06:10.169Z,87.80
2018-02-18T01:08:37.607Z,87.70
2018-02-18T01:11:05.809Z,87.60
2018-02-18T01:13:33.242Z,87.60
2018-02-18T01:16:01.432Z,88.00
2018-02-18T01:18:28.881Z,88.00
2018-02-18T01:20:57.080Z,87.50
2018-02-18T01:23:24.525Z,87.50
2018-02-18T01:25:52.887Z,87.50
2018-02-18T01:28:21.093Z,88.00
2018-02-18T01:30:48.516Z,87.90
2018-02-18T01:33:16.708Z,87.90
2018-02-18T01:35:44.141Z,87.80
2018-02-18T01:38:12.349Z,87.80
2018-02-18T01:40:39.770Z,87.80
2018-02-18T01:43:07.968Z,87.70
2018-02-18T01:45:35.412Z,87.70
2018-02-18T01:48:03.590Z,87.80
2018-02-18T01:50:36.762Z,87.90
2018-02-18T01:53:04.218Z,87.90
2018-02-18T01:55:31.655Z,88.30
2018-02-18T01:57:59.093Z,88.20
2018-02-18T02:00:26.545Z,88.20
2018-02-18T02:02:53.982Z,88.30
2018-02-18T02:05:21.408Z,88.30
2018-02-18T02:07:49.616Z,88.50
2018-02-18T02:10:17.066Z,88.30
2018-02-18T02:12:45.250Z,88.80
2018-02-18T02:15:12.670Z,88.80
2018-02-18T02:17:40.880Z,88.10
2018-02-18T02:20:08.330Z,88.00
2018-02-18T02:22:36.537Z,88.10
2018-02-18T02:25:03.961Z,88.00
2018-02-18T02:27:31.427Z,88.10
2018-02-18T02:30:00.250Z,88.00
2018-02-18T02:32:27.690Z,87.80
2018-02-18T02:34:55.116Z,88.30
2018-02-18T02:37:23.305Z,88.30
2018-02-18T02:39:50.808Z,88.30
2018-02-18T02:42:18.242Z,88.00
2018-02-18T02:44:45.677Z,88.10
2018-02-18T02:47:13.102Z,88.60
2018-02-18T02:49:41.300Z,90.00
2018-02-18T02:52:08.726Z,90.00
2018-02-18T02:54:36.158Z,89.50
2018-02-18T02:57:03.575Z,89.60
2018-02-18T02:59:31.013Z,89.10
2018-02-18T03:01:59.206Z,88.10
2018-02-18T03:04:26.648Z,88.00
2018-02-18T03:06:54.853Z,88.00
2018-02-18T03:09:22.276Z,88.60
2018-02-18T03:11:50.520Z,87.70
2018-02-18T03:14:17.949Z,87.70
2018-02-18T03:16:45.393Z,87.30
2018-02-18T03:19:12.825Z,87.80
2018-02-18T03:21:41.008Z,88.30
2018-02-18T03:24:08.458Z,88.30
2018-02-18T03:26:36.654Z,88.00
2018-02-18T03:29:04.073Z,87.90
2018-02-18T03:31:31.509Z,87.70
2018-02-18T03:33:58.961Z,87.10
2018-02-18T03:36:26.683Z,87.80
2018-02-18T03:38:54.883Z,88.70
2018-02-18T03:41:22.323Z,88.60
2018-02-18T03:43:49.804Z,88.30
2018-02-18T03:46:17.248Z,87.80
2018-02-18T03:48:44.671Z,87.70
2018-02-18T03:51:12.857Z,87.50
2018-02-18T03:53:41.070Z,87.60
2018-02-18T03:56:08.496Z,87.60
2018-02-18T03:58:35.934Z,87.50
2018-02-18T04:01:04.112Z,87.60
2018-02-18T04:03:32.322Z,87.60
2018-02-18T04:05:59.745Z,87.50
2018-02-18T04:08:27.949Z,87.60
2018-02-18T04:10:55.364Z,87.60
2018-02-18T04:13:22.793Z,87.50
2018-02-18T04:15:50.230Z,87.30
2018-02-18T04:18:17.670Z,88.10
2018-02-18T04:20:45.089Z,88.10
2018-02-18T04:23:12.970Z,88.30
2018-02-18T04:25:41.169Z,88.50
2018-02-18T04:28:08.605Z,88.40
2018-02-18T04:30:36.808Z,88.10
2018-02-18T04:33:04.224Z,88.00
2018-02-18T04:35:32.444Z,88.10
2018-02-18T04:37:59.871Z,88.00
2018-02-18T04:40:28.063Z,88.50
2018-02-18T04:42:55.510Z,88.50
2018-02-18T04:45:22.940Z,88.40
2018-02-18T04:47:51.141Z,88.90
2018-02-18T04:50:18.574Z,88.70
2018-02-18T04:52:45.998Z,88.50
2018-02-18T04:55:13.432Z,88.70
2018-02-18T04:57:41.649Z,88.40
2018-02-18T05:00:09.121Z,88.30
2018-02-18T05:02:37.358Z,88.10
2018-02-18T05:05:04.793Z,88.30
2018-02-18T05:07:32.217Z,88.20
2018-02-18T05:10:00.425Z,88.50
2018-02-18T05:12:27.866Z,88.30
2018-02-18T05:14:56.088Z,88.90
2018-02-18T05:17:23.509Z,88.80
2018-02-18T05:19:50.960Z,89.20
2018-02-18T05:22:19.141Z,89.10
2018-02-18T05:24:46.578Z,89.00
2018-02-18T05:27:14.761Z,89.10
2018-02-18T05:29:42.966Z,89.00
2018-02-18T05:32:10.388Z,88.90
2018-02-18T05:34:38.597Z,89.00
2018-02-18T05:37:06.015Z,89.00
2018-02-18T05:39:34.213Z,89.10
2018-02-18T05:42:01.638Z,89.10
2018-02-18T05:44:29.069Z,89.10
2018-02-18T05:46:56.517Z,89.00
2018-02-18T05:49:23.941Z,88.90
2018-02-18T05:51:51.368Z,89.00
2018-02-18T05:54:19.563Z,89.20
2018-02-18T05:56:47.006Z,89.10
2018-02-18T05:59:14.449Z,89.20
2018-02-18T06:01:41.869Z,89.20
2018-02-18T06:04:09.311Z,89.20
2018-02-18T06:06:36.768Z,88.90
2018-02-18T06:09:04.180Z,88.70
2018-02-18T06:11:31.616Z,89.70
2018-02-18T06:13:59.046Z,90.00
2018-02-18T06:16:26.654Z,89.40
2018-02-18T06:18:54.068Z,88.70
2018-02-18T06:21:21.510Z,88.70
2018-02-18T06:23:48.938Z,89.20
2018-02-18T06:26:17.140Z,88.90
2018-02-18T06:28:44.560Z,88.90
2018-02-18T06:31:11.984Z,88.80
2018-02-18T06:33:39.428Z,88.70
2018-02-18T06:36:06.860Z,88.80
2018-02-18T06:38:34.292Z,88.80
2018-02-18T06:41:02.490Z,89.60
2018-02-18T06:43:29.919Z,89.60
2018-02-18T06:45:57.341Z,89.90
2018-02-18T06:48:24.792Z,89.50
2018-02-18T06:50:52.244Z,89.30
2018-02-18T06:53:19.666Z,89.60
2018-02-18T06:55:47.863Z,89.30
2018-02-18T06:58:15.288Z,89.30
2018-02-18T07:00:43.499Z,89.30
2018-02-18T07:03:10.928Z,89.10
2018-02-18T07:05:39.116Z,89.50
2018-02-18T07:08:06.549Z,89.40
2018-02-18T07:10:34.751Z,90.20
2018-02-18T07:13:02.172Z,90.20
2018-02-18T07:15:29.628Z,90.30
2018-02-18T07:17:57.027Z,90.10
2018-02-18T07:20:24.485Z,90.10
2018-02-18T07:22:51.912Z,89.70
2018-02-18T07:25:19.345Z,89.80
2018-02-18T07:27:46.784Z,89.80
2018-02-18T07:30:14.223Z,89.60
2018-02-18T07:32:41.785Z,89.90
2018-02-18T07:35:09.195Z,89.50
2018-02-18T07:37:36.645Z,89.70
2018-02-18T07:40:04.077Z,90.40
2018-02-18T07:42:31.502Z,90.40
2018-02-18T07:44:58.942Z,90.30
2018-02-18T07:47:27.135Z,89.90
2018-02-18T07:49:54.570Z,89.90
2018-02-18T07:52:22.758Z,89.90
2018-02-18T07:54:50.180Z,90.00
2018-02-18T07:57:17.613Z,90.00
2018-02-18T07:59:45.073Z,90.30
2018-02-18T08:02:12.507Z,90.80
2018-02-18T08:04:39.955Z,91.10
2018-02-18T08:07:07.373Z,90.30
2018-02-18T08:09:34.814Z,87.80
2018-02-18T08:12:02.234Z,85.10
2018-02-18T08:14:29.676Z,83.00
2018-02-18T08:16:57.119Z,79.50
2018-02-18T08:19:25.344Z,72.10
2018-02-18T08:21:52.775Z,72.00
2018-02-18T08:24:20.206Z,66.50
2018-02-18T08:26:48.433Z,57.10
2018-02-18T08:29:15.845Z,57.00
2018-02-18T08:31:44.046Z,59.80
2018-02-18T08:34:11.492Z,59.80
2018-02-18T08:36:38.949Z,59.40
2018-02-18T08:39:06.382Z,59.20
2018-02-18T08:41:34.607Z,60.20
2018-02-18T08:44:02.014Z,60.00
2018-02-18T08:46:30.215Z,61.00
2018-02-18T08:48:57.643Z,60.80
2018-02-18T08:51:25.848Z,56.30
2018-02-18T08:53:53.274Z,56.30
2018-02-18T08:56:21.509Z,51.30
2018-02-18T08:58:48.948Z,51.10
2018-02-18T09:01:16.398Z,50.80
2018-02-18T09:03:43.828Z,49.90
2018-02-18T09:06:12.066Z,46.50
2018-02-18T09:08:39.478Z,46.40
2018-02-18T09:11:06.956Z,44.70
2018-02-18T09:13:34.409Z,43.00
2018-02-18T09:16:01.817Z,42.50
2018-02-18T09:18:29.262Z,40.10
2018-02-18T09:20:56.698Z,38.00
2018-02-18T09:23:24.154Z,38.90
2018-02-18T09:25:51.572Z,39.10
2018-02-18T09:28:19.781Z,37.60
2018-02-18T09:30:47.201Z,37.60
2018-02-18T09:33:14.642Z,36.30
2018-02-18T09:35:42.840Z,34.40
2018-02-18T09:38:10.292Z,34.40
2018-02-18T09:40:38.498Z,33.30
2018-02-18T09:43:05.920Z,33.20
2018-02-18T09:45:34.165Z,33.90
2018-02-18T09:48:01.620Z,33.80
2018-02-18T09:50:29.042Z,34.60
2018-02-18T09:52:56.477Z,32.70
2018-02-18T09:55:24.673Z,32.20
2018-02-18T09:57:52.126Z,32.20
2018-02-18T10:00:19.545Z,31.70
2018-02-18T10:02:47.746Z,30.70
2018-02-18T10:05:15.183Z,30.60
2018-02-18T10:07:43.401Z,31.00
2018-02-18T10:10:10.831Z,31.00
2018-02-18T10:12:38.258Z,31.00
2018-02-18T10:15:05.687Z,30.70
2018-02-18T10:17:33.125Z,30.10
2018-02-18T10:20:00.630Z,29.40
2018-02-18T10:22:28.040Z,29.30
2018-02-18T10:24:55.466Z,29.30
2018-02-18T10:27:23.679Z,30.40
2018-02-18T10:29:51.117Z,30.40
2018-02-18T10:32:18.553Z,30.50
2018-02-18T10:34:46.750Z,30.60
2018-02-18T10:37:14.261Z,30.50
2018-02-18T10:39:41.701Z,30.20
2018-02-18T10:42:09.134Z,30.00
2018-02-18T10:44:36.573Z,29.70
2018-02-18T10:47:03.995Z,29.40
2018-02-18T10:49:31.433Z,29.00
2018-02-18T10:51:58.865Z,28.80
2018-02-18T10:54:26.377Z,29.10
2018-02-18T10:56:55.494Z,29.30
2018-02-18T10:59:22.932Z,29.20
2018-02-18T11:01:51.141Z,29.10
2018-02-18T11:04:18.577Z,28.90
2018-02-18T11:06:46.777Z,27.60
2018-02-18T11:09:14.234Z,27.60
2018-02-18T11:11:41.665Z,26.90
2018-02-18T11:14:09.871Z,26.90
2018-02-18T11:16:37.314Z,26.90
2018-02-18T11:19:04.752Z,25.40
2018-02-18T11:21:32.972Z,27.00
2018-02-18T11:24:00.399Z,27.00
2018-02-18T11:26:27.823Z,27.00
2018-02-18T11:28:55.370Z,27.20
2018-02-18T11:31:22.796Z,28.20
2018-02-18T11:33:50.261Z,27.60
2018-02-18T11:36:17.693Z,27.50
2018-02-18T11:38:45.129Z,26.60
2018-02-18T11:41:13.342Z,26.10
2018-02-18T11:43:40.773Z,26.10
2018-02-18T11:46:08.208Z,28.60
2018-02-18T11:48:35.665Z,28.10
2018-02-18T11:51:03.102Z,27.50
2018-02-18T11:53:30.552Z,27.70
2018-02-18T11:55:57.998Z,27.80
2018-02-18T11:58:25.425Z,26.70
2018-02-18T12:00:52.900Z,26.60
2018-02-18T12:03:20.320Z,26.50
2018-02-18T12:05:48.603Z,26.40
2018-02-18T12:08:16.029Z,26.30
2018-02-18T12:10:43.462Z,25.90
2018-02-18T12:13:10.907Z,26.40
2018-02-18T12:15:38.332Z,26.30
2018-02-18T12:18:06.547Z,25.80
2018-02-18T12:20:33.986Z,25.70
2018-02-18T12:23:01.417Z,25.60
2018-02-18T12:25:29.625Z,26.00
2018-02-18T12:27:57.050Z,26.00
2018-02-18T12:30:25.248Z,25.80
2018-02-18T12:32:52.668Z,25.80
2018-02-18T12:35:20.877Z,25.60
2018-02-18T12:37:48.302Z,25.90
2018-02-18T12:40:15.765Z,26.10
2018-02-18T12:42:43.957Z,25.80
2018-02-18T12:45:11.410Z,25.80
2018-02-18T12:47:39.606Z,25.30
2018-02-18T12:50:07.041Z,25.30
2018-02-18T12:52:35.243Z,24.80
2018-02-18T12:55:02.668Z,24.80
2018-02-18T12:57:30.874Z,24.90
2018-02-18T12:59:58.298Z,24.90
2018-02-18T13:02:26.498Z,25.10
2018-02-18T13:04:53.926Z,25.10
2018-02-18T13:07:21.353Z,25.10
2018-02-18T13:09:48.788Z,24.90
2018-02-18T13:12:16.230Z,24.30
2018-02-18T13:14:43.665Z,24.80
2018-02-18T13:17:11.866Z,25.20
2018-02-18T13:19:39.293Z,25.20
2018-02-18T13:22:07.544Z,25.70
2018-02-18T13:24:34.994Z,25.70
2018-02-18T13:27:02.446Z,25.80
2018-02-18T13:29:29.882Z,25.60
2018-02-18T13:31:57.308Z,24.90
2018-02-18T13:34:24.797Z,25.20
2018-02-18T13:36:52.212Z,25.80
2018-02-18T13:39:20.453Z,25.90
2018-02-18T13:41:48.637Z,26.00
2018-02-18T13:44:16.076Z,26.00
2018-02-18T13:46:43.511Z,26.10
2018-02-18T13:49:10.958Z,27.10
2018-02-18T13:51:38.389Z,28.40
2018-02-18T13:54:06.604Z,27.50
2018-02-18T13:56:34.040Z,27.40
2018-02-18T13:59:02.249Z,27.80
2018-02-18T14:01:29.682Z,27.80
2018-02-18T14:03:57.097Z,27.70
2018-02-18T14:06:24.537Z,27.50
2018-02-18T14:08:51.972Z,26.70
2018-02-18T14:11:19.417Z,26.20
2018-02-18T14:13:46.844Z,26.00
2018-02-18T14:16:15.058Z,25.50
2018-02-18T14:18:42.484Z,25.50
2018-02-18T14:21:09.932Z,26.30
2018-02-18T14:23:38.132Z,25.90
2018-02-18T14:26:05.613Z,25.90
2018-02-18T14:28:33.769Z,27.70
2018-02-18T14:31:01.193Z,27.70
2018-02-18T14:33:29.389Z,27.90
2018-02-18T14:35:56.824Z,27.80
2018-02-18T14:38:25.028Z,27.70
2018-02-18T14:40:52.452Z,27.70
2018-02-18T14:43:32.456Z,27.90
2018-02-18T14:49:11.114Z,28.20
2018-02-18T14:51:50.476Z,29.40
2018-02-18T14:54:29.767Z,29.80
2018-02-18T14:56:59.670Z,31.00
2018-02-18T14:59:27.099Z,32.20
2018-02-18T15:01:56.210Z,32.20
2018-02-18T15:04:23.930Z,32.20
2018-02-18T15:06:51.373Z,32.90
2018-02-18T15:09:18.801Z,33.50
2018-02-18T15:11:47.001Z,33.30
2018-02-18T15:14:14.465Z,33.20
2018-02-18T15:16:41.903Z,33.10
2018-02-18T15:19:09.332Z,33.30
2018-02-18T15:21:37.534Z,33.90
2018-02-18T15:24:04.952Z,33.90
2018-02-18T15:26:33.181Z,34.80
2018-02-18T15:29:00.590Z,34.80
2018-02-18T15:31:28.791Z,35.50
2018-02-18T15:33:56.225Z,35.50
2018-02-18T15:36:24.440Z,36.20
2018-02-18T15:38:51.855Z,36.10
2018-02-18T15:41:20.071Z,36.70
2018-02-18T15:43:47.513Z,36.70
2018-02-18T15:46:14.960Z,36.90
2018-02-18T15:48:42.380Z,37.10
2018-02-18T15:51:09.812Z,36.40
2018-02-18T15:53:37.250Z,36.80
2018-02-18T15:56:04.691Z,36.90
2018-02-18T15:58:32.892Z,37.50
2018-02-18T16:01:00.330Z,37.50
2018-02-18T16:03:27.753Z,37.70
2018-02-18T16:05:57.026Z,37.90
2018-02-18T16:08:24.450Z,37.60
2018-02-18T16:10:51.897Z,37.30
2018-02-18T16:13:19.320Z,37.50
2018-02-18T16:15:46.757Z,37.10
2018-02-18T16:18:14.185Z,37.60
2018-02-18T16:20:41.673Z,37.50
2018-02-18T16:23:09.113Z,37.40
2018-02-18T16:25:36.555Z,38.90
2018-02-18T16:28:03.983Z,38.20
2018-02-18T16:30:32.182Z,39.80
2018-02-18T16:32:59.609Z,39.80
2018-02-18T16:35:27.818Z,39.80
2018-02-18T16:37:55.243Z,39.80
2018-02-18T16:40:23.449Z,40.20
2018-02-18T16:42:50.925Z,40.10
2018-02-18T16:45:18.343Z,40.40
2018-02-18T16:47:45.769Z,40.20
2018-02-18T16:50:13.206Z,40.90
2018-02-18T16:52:41.409Z,40.90
2018-02-18T16:55:09.626Z,40.80
2018-02-18T16:57:37.133Z,40.60
2018-02-18T17:00:04.552Z,41.30
2018-02-18T17:02:31.998Z,42.00
2018-02-18T17:04:59.437Z,42.50
2018-02-18T17:07:26.875Z,41.90
2018-02-18T17:09:54.308Z,42.20
2018-02-18T17:12:23.254Z,43.50
2018-02-18T17:14:50.700Z,43.50
2018-02-18T17:17:18.154Z,43.40
2018-02-18T17:19:46.385Z,44.90
2018-02-18T17:22:13.814Z,44.90
2018-02-18T17:24:41.249Z,44.90
2018-02-18T17:27:08.689Z,44.60
2018-02-18T17:29:36.895Z,45.10
2018-02-18T17:32:04.325Z,45.00
2018-02-18T17:34:32.541Z,46.50
2018-02-18T17:37:00.184Z,46.50
2018-02-18T17:39:27.605Z,46.70
2018-02-18T17:41:55.048Z,46.90
2018-02-18T17:44:22.477Z,47.30
2018-02-18T17:46:49.912Z,47.10
2018-02-18T17:49:18.071Z,47.80
2018-02-18T17:51:46.283Z,48.40
2018-02-18T17:54:13.716Z,48.40
2018-02-18T17:56:41.749Z,48.40
2018-02-18T17:59:09.182Z,48.90
2018-02-18T18:01:36.622Z,48.50
2018-02-18T18:04:04.054Z,49.20
2018-02-18T18:06:32.274Z,49.90
2018-02-18T18:08:59.702Z,49.90
2018-02-18T18:11:27.131Z,50.00
2018-02-18T18:13:55.331Z,50.70
2018-02-18T18:16:22.770Z,50.70
2018-02-18T18:18:50.976Z,51.80
2018-02-18T18:21:18.402Z,51.80
2018-02-18T18:23:46.638Z,52.20
2018-02-18T18:26:14.070Z,52.10
2018-02-18T18:28:41.535Z,52.20
2018-02-18T18:31:08.965Z,51.50
2018-02-18T18:33:36.417Z,51.50
2018-02-18T18:36:03.857Z,52.30
2018-02-18T18:38:32.074Z,52.50
2018-02-18T18:40:59.500Z,52.50
2018-02-18T18:43:27.743Z,52.90
2018-02-18T18:45:55.185Z,52.90
2018-02-18T18:48:22.606Z,54.20
2018-02-18T18:50:50.036Z,54.70
2018-02-18T18:53:18.241Z,55.60
2018-02-18T18:55:45.678Z,55.60
2018-02-18T18:58:13.883Z,56.00
2018-02-18T19:00:41.301Z,56.00
2018-02-18T19:03:09.505Z,57.00
2018-02-18T19:05:36.924Z,56.90
2018-02-18T19:08:04.352Z,57.30
2018-02-18T19:10:31.778Z,57.80
2018-02-18T19:12:59.200Z,57.90
2018-02-18T19:15:27.422Z,58.00
2018-02-18T19:17:54.853Z,58.00
2018-02-18T19:20:22.281Z,58.50
2018-02-18T19:22:49.724Z,58.70
2018-02-18T19:25:17.891Z,59.00
2018-02-18T19:27:45.318Z,59.40
2018-02-18T19:30:12.841Z,59.40
2018-02-18T19:32:41.043Z,58.80
2018-02-18T19:35:08.544Z,58.80
2018-02-18T19:37:36.029Z,58.50
2018-02-18T19:40:03.486Z,58.60
2018-02-18T19:42:30.922Z,58.50
2018-02-18T19:44:58.424Z,58.20
2018-02-18T19:47:26.606Z,58.70
2018-02-18T19:49:54.179Z,58.70
2018-02-18T19:52:21.647Z,58.40
2018-02-18T19:54:49.076Z,58.40
2018-02-18T19:57:16.497Z,58.40
2018-02-18T19:59:43.920Z,58.20
2018-02-18T20:02:11.353Z,58.00
2018-02-18T20:04:38.789Z,57.90
2018-02-18T20:07:06.979Z,58.20
2018-02-18T20:09:34.423Z,58.20
2018-02-18T20:12:02.616Z,58.40
2018-02-18T20:14:30.041Z,58.40
2018-02-18T20:16:57.470Z,58.80
2018-02-18T20:19:25.668Z,59.90
2018-02-18T20:21:53.093Z,59.80
2018-02-18T20:24:20.535Z,60.10
2018-02-18T20:26:47.962Z,60.80
2018-02-18T20:29:16.156Z,61.90
2018-02-18T20:31:43.579Z,61.90
2018-02-18T20:34:11.015Z,62.40
2018-02-18T20:36:38.429Z,62.40
2018-02-18T20:39:05.866Z,62.90
2018-02-18T20:41:34.051Z,63.10
2018-02-18T20:44:01.493Z,63.10
2018-02-18T20:46:29.680Z,64.60
2018-02-18T20:48:57.437Z,64.60
2018-02-18T20:51:25.629Z,65.50
2018-02-18T20:53:53.065Z,65.50
2018-02-18T20:56:21.262Z,65.70
2018-02-18T20:58:48.693Z,65.70
2018-02-18T21:01:16.114Z,66.40
2018-02-18T21:03:43.550Z,67.10
2018-02-18T21:06:10.976Z,67.20
2018-02-18T21:08:39.176Z,69.00
2018-02-18T21:11:06.603Z,69.00
2018-02-18T21:13:34.804Z,69.10
2018-02-18T21:16:02.231Z,69.10
2018-02-18T21:18:30.518Z,69.80
2018-02-18T21:20:58.696Z,69.90
2018-02-18T21:23:26.136Z,69.90
2018-02-18T21:25:54.185Z,70.60
2018-02-18T21:28:21.624Z,70.00
2018-02-18T21:30:49.057Z,69.50
2018-02-18T21:33:16.501Z,69.40
2018-02-18T21:35:43.926Z,69.70
2018-02-18T21:38:11.353Z,69.20
2018-02-18T21:40:38.786Z,68.60
2018-02-18T21:43:06.201Z,68.90
2018-02-18T21:45:34.456Z,69.70
2018-02-18T21:48:01.892Z,69.90
2018-02-18T21:50:29.334Z,69.70
2018-02-18T21:52:57.672Z,69.30
2018-02-18T21:55:25.122Z,68.70
2018-02-18T21:57:52.543Z,68.20
2018-02-18T22:00:20.002Z,69.30
2018-02-18T22:02:47.433Z,67.50
2018-02-18T22:05:15.618Z,67.30
2018-02-18T22:07:43.040Z,67.30
2018-02-18T22:10:11.240Z,66.30
2018-02-18T22:12:38.669Z,66.10
2018-02-18T22:15:06.114Z,65.80
2018-02-18T22:17:33.538Z,65.40
2018-02-18T22:20:00.977Z,65.80
2018-02-18T22:22:28.404Z,65.70
2018-02-18T22:24:57.522Z,66.40
2018-02-18T22:27:24.957Z,66.40
2018-02-18T22:29:53.167Z,66.60
2018-02-18T22:32:20.575Z,66.70
2018-02-18T22:34:48.012Z,67.40
2018-02-18T22:37:15.433Z,66.80
2018-02-18T22:39:42.862Z,67.70
2018-02-18T22:42:11.057Z,68.60
2018-02-18T22:44:38.492Z,68.40
2018-02-18T22:47:06.690Z,69.70
2018-02-18T22:49:34.125Z,69.70
2018-02-18T22:52:02.337Z,70.20
2018-02-18T22:54:29.823Z,70.10
2018-02-18T22:56:57.258Z,70.10
2018-02-18T22:59:24.681Z,70.20
2018-02-18T23:01:52.868Z,71.00
2018-02-18T23:04:20.300Z,71.00
2018-02-18T23:06:48.496Z,72.30
2018-02-18T23:09:15.929Z,72.10
2018-02-18T23:11:44.146Z,74.00
2018-02-18T23:14:11.609Z,73.30
2018-02-18T23:16:39.024Z,74.10
2018-02-18T23:19:07.217Z,74.30
2018-02-18T23:21:34.652Z,74.30
2018-02-18T23:24:02.074Z,74.60
2018-02-18T23:26:30.274Z,75.70
2018-02-18T23:28:58.636Z,75.70
2018-02-18T23:31:26.068Z,75.90
2018-02-18T23:33:53.493Z,76.40
2018-02-18T23:36:21.733Z,77.50
2018-02-18T23:38:49.140Z,77.50
2018-02-18T23:41:16.571Z,78.30
2018-02-18T23:43:44.752Z,79.00
2018-02-18T23:46:12.949Z,76.60
2018-02-18T23:48:40.385Z,76.60
2018-02-18T23:51:08.588Z,76.10
2018-02-18T23:53:36.014Z,76.00
2018-02-18T23:56:04.232Z,74.60
2018-02-18T23:58:32.400Z,74.60
